»·PEaware :: N829K KSMX-KBFL

N829K :: KSMX-KBFL

FLIGHT INFORMATION

Flight Status: Arrived
Operator: Privately registered:
United States
More flights under this callsign
Pilot: Roger S. (18883)
Aircraft: BEECH AIRCRAFT BONANZA
(BE35)
More flights by this aircraft type
Origin: KSMX Santa Maria Pub/Capt Hancock
United States
Destination: KBFL Meadows
United States
More flights between these airports :: More routes between these airports
Route: +FELLOWS VOR
File this flight plan on PilotEdge
Remarks: CAT 5 Test
Altitude:
(Current/Filed)
7,500ft
Speed:
(Current/Filed)
160kts
Departed: 13-Jun-18 07:20 AM
Arrived: 13-Jun-18 08:04 AM
Distance/Time
Traveled:
76nm/0:44
Distance/Time
To Go:
Arrived

Flight Plot

Page will automatically refresh every two minutes.

Flight plan parsing failed; only flown route is shown


Map Options




Map Legend


Flown Route
Filed Route
Departure Airport
Arrival Airport
Navaid (VOR, NDB)
Fix

Horizontal Profiles

Position Reports

Time Latitude Longitude Heading Altitude Ground
Speed
13-Jun-18 07:03 34.901609 -120.452221 228 264ft 0kts
13-Jun-18 07:04 34.901609 -120.452221 228 264ft 0kts
13-Jun-18 07:05 34.901609 -120.452221 228 264ft 0kts
13-Jun-18 07:06 34.901609 -120.452221 228 264ft 0kts
13-Jun-18 07:07 34.901609 -120.452221 228 264ft 0kts
13-Jun-18 07:08 34.901609 -120.452221 228 264ft 0kts
13-Jun-18 07:09 34.901609 -120.452221 228 264ft 0kts
13-Jun-18 07:10 34.901609 -120.452221 228 264ft 0kts
13-Jun-18 07:11 34.901609 -120.452221 228 264ft 0kts
13-Jun-18 07:12 34.901609 -120.452221 228 264ft 0kts
13-Jun-18 07:13 34.901524 -120.452310 217 264ft 5kts
13-Jun-18 07:14 34.898093 -120.449642 135 264ft 30kts
13-Jun-18 07:15 34.893998 -120.445373 178 264ft 0kts
13-Jun-18 07:16 34.893998 -120.445373 179 264ft 0kts
13-Jun-18 07:17 34.893998 -120.445373 178 264ft 0kts
13-Jun-18 07:18 34.893998 -120.445373 178 264ft 0kts
13-Jun-18 07:19 34.893050 -120.446083 316 264ft 0kts
13-Jun-18 07:20 34.893962 -120.447191 314 264ft 58kts
13-Jun-18 07:21 34.902569 -120.469860 255 1121ft 88kts
13-Jun-18 07:22 34.898573 -120.502647 266 2081ft 100kts
13-Jun-18 07:23 34.894551 -120.534481 254 3065ft 99kts
13-Jun-18 07:24 34.877127 -120.552293 138 3881ft 105kts
13-Jun-18 07:25 34.879998 -120.519093 70 4710ft 105kts
13-Jun-18 07:26 34.889584 -120.485677 70 5502ft 104kts
13-Jun-18 07:27 34.899123 -120.452529 70 6247ft 103kts
13-Jun-18 07:28 34.908673 -120.418507 70 6891ft 112kts
13-Jun-18 07:29 34.919476 -120.382550 68 7547ft 113kts
13-Jun-18 07:30 34.933262 -120.339385 68 7541ft 152kts
13-Jun-18 07:31 34.949767 -120.289464 67 7538ft 163kts
13-Jun-18 07:32 34.967177 -120.237762 67 7537ft 166kts
13-Jun-18 07:33 34.984931 -120.185348 67 7537ft 168kts
13-Jun-18 07:34 35.002881 -120.132350 67 7536ft 169kts
13-Jun-18 07:35 35.020591 -120.079991 67 7598ft 165kts
13-Jun-18 07:36 35.038242 -120.027730 67 7601ft 167kts
13-Jun-18 07:37 35.055550 -119.976410 67 7741ft 162kts
13-Jun-18 07:38 35.072926 -119.924762 67 7739ft 166kts
13-Jun-18 07:39 35.090556 -119.872328 67 7739ft 167kts
13-Jun-18 07:40 35.107657 -119.821521 67 7738ft 168kts
13-Jun-18 07:41 35.130529 -119.771896 60 7738ft 168kts
13-Jun-18 07:42 35.152911 -119.721828 61 7738ft 168kts
13-Jun-18 07:43 35.174641 -119.671201 62 7737ft 168kts
13-Jun-18 07:44 35.196143 -119.620359 62 7739ft 168kts
13-Jun-18 07:45 35.217506 -119.569512 62 7738ft 168kts
13-Jun-18 07:46 35.238838 -119.518456 63 7738ft 168kts
13-Jun-18 07:47 35.260093 -119.467823 61 7404ft 167kts
13-Jun-18 07:48 35.280770 -119.418561 62 6052ft 153kts
13-Jun-18 07:49 35.299217 -119.374318 62 4854ft 142kts
13-Jun-18 07:50 35.316064 -119.333502 63 3701ft 137kts
13-Jun-18 07:51 35.333355 -119.290970 64 2633ft 157kts
13-Jun-18 07:52 35.354230 -119.240046 63 2595ft 172kts
13-Jun-18 07:53 35.375238 -119.190254 62 2577ft 137kts
13-Jun-18 07:54 35.396990 -119.168316 327 2613ft 128kts
13-Jun-18 07:55 35.390311 -119.212906 238 2600ft 166kts
13-Jun-18 07:56 35.355914 -119.237741 136 2587ft 176kts
13-Jun-18 07:57 35.367547 -119.184079 58 2594ft 179kts
13-Jun-18 07:58 35.400155 -119.144750 54 2579ft 141kts
13-Jun-18 07:59 35.402029 -119.103124 113 2224ft 130kts
13-Jun-18 08:00 35.386413 -119.065485 131 2124ft 110kts
13-Jun-18 08:01 35.385690 -119.038667 42 1801ft 104kts
13-Jun-18 08:02 35.408301 -119.032451 335 1328ft 86kts
13-Jun-18 08:03 35.425989 -119.050235 315 685ft 81kts
13-Jun-18 08:04 35.434941 -119.059861 41 509ft 0kts
13-Jun-18 08:05 35.434961 -119.059840 40 509ft 2kts
13-Jun-18 08:06 35.435310 -119.059436 47 509ft 0kts
13-Jun-18 08:07 35.436238 -119.056874 114 509ft 18kts
13-Jun-18 08:08 35.430508 -119.049945 135 509ft 33kts
13-Jun-18 08:09 35.425496 -119.043212 153 509ft 7kts
13-Jun-18 08:10 35.425206 -119.042455 358 509ft 0kts
13-Jun-18 08:11 35.425206 -119.042455 358 509ft 0kts
13-Jun-18 08:12 35.425206 -119.042455 358 509ft 0kts
13-Jun-18 08:13 35.425206 -119.042455 358 509ft 0kts
13-Jun-18 08:14 35.425206 -119.042455 358 509ft 0kts
13-Jun-18 08:15 35.425206 -119.042455 358 509ft 0kts
13-Jun-18 08:16 35.425206 -119.042455 358 509ft 0kts

Navigation Log

Ident Type
Flight plan parsing failed, navigation log unavailable